sensor_id;sensor_type;location;lat;lon;timestamp;temperature;humidity
69823;SHT31;57119;52.516;13.508;2023-11-21T00:00:05;7.68;99.99
69823;SHT31;57119;52.516;13.508;2023-11-21T00:02:36;7.59;99.99
69823;SHT31;57119;52.516;13.508;2023-11-21T00:05:03;7.58;99.99
69823;SHT31;57119;52.516;13.508;2023-11-21T00:07:30;7.50;99.99
69823;SHT31;57119;52.516;13.508;2023-11-21T00:09:55;7.45;99.99
69823;SHT31;57119;52.516;13.508;2023-11-21T00:12:21;7.34;99.99
69823;SHT31;57119;52.516;13.508;2023-11-21T00:14:46;7.40;99.99
69823;SHT31;57119;52.516;13.508;2023-11-21T00:17:12;7.35;99.99
69823;SHT31;57119;52.516;13.508;2023-11-21T00:19:37;7.41;99.99
69823;SHT31;57119;52.516;13.508;2023-11-21T00:22:03;7.28;99.99
69823;SHT31;57119;52.516;13.508;2023-11-21T00:24:28;7.17;99.99
69823;SHT31;57119;52.516;13.508;2023-11-21T00:26:53;7.15;99.99
69823;SHT31;57119;52.516;13.508;2023-11-21T00:29:19;7.15;99.99
69823;SHT31;57119;52.516;13.508;2023-11-21T00:31:45;7.14;99.99
69823;SHT31;57119;52.516;13.508;2023-11-21T00:34:11;7.07;99.99
69823;SHT31;57119;52.516;13.508;2023-11-21T00:36:38;7.08;99.99
69823;SHT31;57119;52.516;13.508;2023-11-21T00:39:04;6.93;99.99
69823;SHT31;57119;52.516;13.508;2023-11-21T00:41:31;6.86;99.99
69823;SHT31;57119;52.516;13.508;2023-11-21T00:43:56;6.89;99.99
69823;SHT31;57119;52.516;13.508;2023-11-21T00:46:22;6.82;99.99
69823;SHT31;57119;52.516;13.508;2023-11-21T00:48:49;6.75;99.99
69823;SHT31;57119;52.516;13.508;2023-11-21T00:51:14;6.76;99.99
69823;SHT31;57119;52.516;13.508;2023-11-21T00:53:40;6.73;99.99
69823;SHT31;57119;52.516;13.508;2023-11-21T00:56:05;6.73;99.99
69823;SHT31;57119;52.516;13.508;2023-11-21T00:58:32;6.72;99.99
69823;SHT31;57119;52.516;13.508;2023-11-21T01:00:57;6.61;99.99
69823;SHT31;57119;52.516;13.508;2023-11-21T01:03:22;6.61;99.99
69823;SHT31;57119;52.516;13.508;2023-11-21T01:05:48;6.52;99.99
69823;SHT31;57119;52.516;13.508;2023-11-21T01:08:15;6.52;99.99
69823;SHT31;57119;52.516;13.508;2023-11-21T01:10:40;6.48;99.99
69823;SHT31;57119;52.516;13.508;2023-11-21T01:13:06;6.41;99.99
69823;SHT31;57119;52.516;13.508;2023-11-21T01:15:32;6.49;99.99
69823;SHT31;57119;52.516;13.508;2023-11-21T01:17:58;6.49;99.99
69823;SHT31;57119;52.516;13.508;2023-11-21T01:20:23;6.44;99.99
69823;SHT31;57119;52.516;13.508;2023-11-21T01:22:48;6.32;99.99
69823;SHT31;57119;52.516;13.508;2023-11-21T01:25:16;6.34;99.99
69823;SHT31;57119;52.516;13.508;2023-11-21T01:27:42;6.29;99.99
69823;SHT31;57119;52.516;13.508;2023-11-21T01:30:08;6.27;99.99
69823;SHT31;57119;52.516;13.508;2023-11-21T01:32:36;6.20;99.99
69823;SHT31;57119;52.516;13.508;2023-11-21T01:35:01;6.24;99.99
69823;SHT31;57119;52.516;13.508;2023-11-21T01:37:27;6.29;99.99
69823;SHT31;57119;52.516;13.508;2023-11-21T01:39:55;6.28;99.99
69823;SHT31;57119;52.516;13.508;2023-11-21T01:42:21;6.32;99.99
69823;SHT31;57119;52.516;13.508;2023-11-21T01:44:46;6.34;99.99
69823;SHT31;57119;52.516;13.508;2023-11-21T01:47:13;6.21;99.99
69823;SHT31;57119;52.516;13.508;2023-11-21T01:49:39;6.21;99.99
69823;SHT31;57119;52.516;13.508;2023-11-21T01:52:05;6.25;99.99
69823;SHT31;57119;52.516;13.508;2023-11-21T01:54:31;6.24;99.99
69823;SHT31;57119;52.516;13.508;2023-11-21T01:57:00;6.28;99.99
69823;SHT31;57119;52.516;13.508;2023-11-21T01:59:34;6.31;99.99
69823;SHT31;57119;52.516;13.508;2023-11-21T02:02:00;6.37;99.99
69823;SHT31;57119;52.516;13.508;2023-11-21T02:04:25;6.27;99.99
69823;SHT31;57119;52.516;13.508;2023-11-21T02:06:51;6.18;99.99
69823;SHT31;57119;52.516;13.508;2023-11-21T02:09:17;6.25;99.99
69823;SHT31;57119;52.516;13.508;2023-11-21T02:11:43;6.17;99.99
69823;SHT31;57119;52.516;13.508;2023-11-21T02:14:09;6.18;99.99
69823;SHT31;57119;52.516;13.508;2023-11-21T02:16:35;6.21;99.99
69823;SHT31;57119;52.516;13.508;2023-11-21T02:19:02;6.21;99.99
69823;SHT31;57119;52.516;13.508;2023-11-21T02:21:31;6.18;99.99
69823;SHT31;57119;52.516;13.508;2023-11-21T02:23:57;6.20;99.99
69823;SHT31;57119;52.516;13.508;2023-11-21T02:26:23;6.16;99.99
69823;SHT31;57119;52.516;13.508;2023-11-21T02:28:50;6.13;99.99
69823;SHT31;57119;52.516;13.508;2023-11-21T02:31:18;6.08;99.99
69823;SHT31;57119;52.516;13.508;2023-11-21T02:33:44;5.98;99.99
69823;SHT31;57119;52.516;13.508;2023-11-21T02:36:09;5.94;99.99
69823;SHT31;57119;52.516;13.508;2023-11-21T02:38:34;5.91;99.99
69823;SHT31;57119;52.516;13.508;2023-11-21T02:41:00;5.89;99.99
69823;SHT31;57119;52.516;13.508;2023-11-21T02:43:25;5.85;99.99
69823;SHT31;57119;52.516;13.508;2023-11-21T02:45:51;5.86;99.99
69823;SHT31;57119;52.516;13.508;2023-11-21T02:48:16;5.81;99.99
69823;SHT31;57119;52.516;13.508;2023-11-21T02:50:41;5.80;99.99
69823;SHT31;57119;52.516;13.508;2023-11-21T02:53:08;5.81;99.99
69823;SHT31;57119;52.516;13.508;2023-11-21T02:55:36;5.73;99.99
69823;SHT31;57119;52.516;13.508;2023-11-21T02:58:02;5.69;99.99
69823;SHT31;57119;52.516;13.508;2023-11-21T03:00:29;5.67;99.99
69823;SHT31;57119;52.516;13.508;2023-11-21T03:02:55;5.71;99.99
69823;SHT31;57119;52.516;13.508;2023-11-21T03:05:21;5.73;99.99
69823;SHT31;57119;52.516;13.508;2023-11-21T03:07:46;5.63;99.99
69823;SHT31;57119;52.516;13.508;2023-11-21T03:10:12;5.60;99.99
69823;SHT31;57119;52.516;13.508;2023-11-21T03:12:38;5.62;99.99
69823;SHT31;57119;52.516;13.508;2023-11-21T03:15:05;5.60;99.99
69823;SHT31;57119;52.516;13.508;2023-11-21T03:17:31;5.62;99.99
69823;SHT31;57119;52.516;13.508;2023-11-21T03:19:56;5.65;99.99
69823;SHT31;57119;52.516;13.508;2023-11-21T03:22:22;5.63;99.99
69823;SHT31;57119;52.516;13.508;2023-11-21T03:24:47;5.59;99.99
69823;SHT31;57119;52.516;13.508;2023-11-21T03:27:13;5.53;99.99
69823;SHT31;57119;52.516;13.508;2023-11-21T03:29:38;5.62;99.99
69823;SHT31;57119;52.516;13.508;2023-11-21T03:32:04;5.59;99.99
69823;SHT31;57119;52.516;13.508;2023-11-21T03:34:30;5.63;99.99
69823;SHT31;57119;52.516;13.508;2023-11-21T03:36:55;5.60;99.99
69823;SHT31;57119;52.516;13.508;2023-11-21T03:39:21;5.56;99.99
69823;SHT31;57119;52.516;13.508;2023-11-21T03:41:47;5.66;99.99
69823;SHT31;57119;52.516;13.508;2023-11-21T03:44:13;5.65;99.99
69823;SHT31;57119;52.516;13.508;2023-11-21T03:46:39;5.71;99.99
69823;SHT31;57119;52.516;13.508;2023-11-21T03:49:04;5.73;99.99
69823;SHT31;57119;52.516;13.508;2023-11-21T03:51:30;5.66;99.99
69823;SHT31;57119;52.516;13.508;2023-11-21T03:53:55;5.59;99.99
69823;SHT31;57119;52.516;13.508;2023-11-21T03:56:20;5.59;99.99
69823;SHT31;57119;52.516;13.508;2023-11-21T03:58:49;5.52;99.99
69823;SHT31;57119;52.516;13.508;2023-11-21T04:01:21;5.58;99.99
69823;SHT31;57119;52.516;13.508;2023-11-21T04:03:47;5.53;99.99
69823;SHT31;57119;52.516;13.508;2023-11-21T04:06:13;5.58;99.99
69823;SHT31;57119;52.516;13.508;2023-11-21T04:08:38;5.46;99.99
69823;SHT31;57119;52.516;13.508;2023-11-21T04:11:03;5.49;99.99
69823;SHT31;57119;52.516;13.508;2023-11-21T04:13:29;5.52;99.99
69823;SHT31;57119;52.516;13.508;2023-11-21T04:15:55;5.49;99.99
69823;SHT31;57119;52.516;13.508;2023-11-21T04:18:21;5.46;99.99
69823;SHT31;57119;52.516;13.508;2023-11-21T04:20:48;5.49;99.99
69823;SHT31;57119;52.516;13.508;2023-11-21T04:23:13;5.48;99.99
69823;SHT31;57119;52.516;13.508;2023-11-21T04:25:39;5.49;99.99
69823;SHT31;57119;52.516;13.508;2023-11-21T04:28:04;5.48;99.99
69823;SHT31;57119;52.516;13.508;2023-11-21T04:30:29;5.38;99.99
69823;SHT31;57119;52.516;13.508;2023-11-21T04:32:55;5.28;99.99
69823;SHT31;57119;52.516;13.508;2023-11-21T04:35:20;5.31;99.99
69823;SHT31;57119;52.516;13.508;2023-11-21T04:37:45;5.38;99.99
69823;SHT31;57119;52.516;13.508;2023-11-21T04:40:11;5.29;99.99
69823;SHT31;57119;52.516;13.508;2023-11-21T04:42:37;5.41;99.99
69823;SHT31;57119;52.516;13.508;2023-11-21T04:45:06;5.34;99.99
69823;SHT31;57119;52.516;13.508;2023-11-21T04:47:35;5.27;99.99
69823;SHT31;57119;52.516;13.508;2023-11-21T04:50:02;5.29;99.99
69823;SHT31;57119;52.516;13.508;2023-11-21T04:52:28;5.18;99.99
69823;SHT31;57119;52.516;13.508;2023-11-21T04:54:53;5.24;99.99
69823;SHT31;57119;52.516;13.508;2023-11-21T04:57:20;5.22;99.99
69823;SHT31;57119;52.516;13.508;2023-11-21T04:59:45;5.21;99.99
69823;SHT31;57119;52.516;13.508;2023-11-21T05:02:11;5.24;99.99
69823;SHT31;57119;52.516;13.508;2023-11-21T05:04:37;5.17;99.99
69823;SHT31;57119;52.516;13.508;2023-11-21T05:07:03;5.17;99.99
69823;SHT31;57119;52.516;13.508;2023-11-21T05:09:28;5.18;99.99
69823;SHT31;57119;52.516;13.508;2023-11-21T05:11:57;5.25;99.99
69823;SHT31;57119;52.516;13.508;2023-11-21T05:14:22;5.21;99.99
69823;SHT31;57119;52.516;13.508;2023-11-21T05:16:48;5.21;99.99
69823;SHT31;57119;52.516;13.508;2023-11-21T05:19:13;5.20;99.99
69823;SHT31;57119;52.516;13.508;2023-11-21T05:21:38;5.11;99.99
69823;SHT31;57119;52.516;13.508;2023-11-21T05:24:04;5.18;99.99
69823;SHT31;57119;52.516;13.508;2023-11-21T05:26:30;5.14;99.99
69823;SHT31;57119;52.516;13.508;2023-11-21T05:28:56;5.14;99.99
69823;SHT31;57119;52.516;13.508;2023-11-21T05:31:21;5.18;99.99
69823;SHT31;57119;52.516;13.508;2023-11-21T05:33:47;5.21;99.99
69823;SHT31;57119;52.516;13.508;2023-11-21T05:36:12;5.24;99.99
69823;SHT31;57119;52.516;13.508;2023-11-21T05:38:38;5.21;99.99
69823;SHT31;57119;52.516;13.508;2023-11-21T05:41:03;5.11;99.99
69823;SHT31;57119;52.516;13.508;2023-11-21T05:43:30;5.17;99.99
69823;SHT31;57119;52.516;13.508;2023-11-21T05:45:57;5.14;99.99
69823;SHT31;57119;52.516;13.508;2023-11-21T05:48:22;5.15;99.99
69823;SHT31;57119;52.516;13.508;2023-11-21T05:50:48;5.14;99.99
69823;SHT31;57119;52.516;13.508;2023-11-21T05:53:15;5.07;99.99
69823;SHT31;57119;52.516;13.508;2023-11-21T05:55:41;5.11;99.99
69823;SHT31;57119;52.516;13.508;2023-11-21T05:58:06;5.07;99.99
69823;SHT31;57119;52.516;13.508;2023-11-21T06:00:32;5.08;99.99
69823;SHT31;57119;52.516;13.508;2023-11-21T06:02:58;5.17;99.99
69823;SHT31;57119;52.516;13.508;2023-11-21T06:05:25;5.08;99.99
69823;SHT31;57119;52.516;13.508;2023-11-21T06:07:51;5.08;99.99
69823;SHT31;57119;52.516;13.508;2023-11-21T06:10:21;5.02;99.99
69823;SHT31;57119;52.516;13.508;2023-11-21T06:12:47;5.10;99.99
69823;SHT31;57119;52.516;13.508;2023-11-21T06:15:12;4.98;99.99
69823;SHT31;57119;52.516;13.508;2023-11-21T06:17:42;4.98;99.99
69823;SHT31;57119;52.516;13.508;2023-11-21T06:20:09;5.00;99.99
69823;SHT31;57119;52.516;13.508;2023-11-21T06:22:38;4.98;99.99
69823;SHT31;57119;52.516;13.508;2023-11-21T06:25:05;5.00;99.99
69823;SHT31;57119;52.516;13.508;2023-11-21T06:27:34;5.01;99.99
69823;SHT31;57119;52.516;13.508;2023-11-21T06:30:01;5.04;99.99
69823;SHT31;57119;52.516;13.508;2023-11-21T06:32:26;4.97;99.99
69823;SHT31;57119;52.516;13.508;2023-11-21T06:34:53;4.98;99.99
69823;SHT31;57119;52.516;13.508;2023-11-21T06:37:20;5.04;99.99
69823;SHT31;57119;52.516;13.508;2023-11-21T06:39:48;4.93;99.99
69823;SHT31;57119;52.516;13.508;2023-11-21T06:42:13;5.07;99.99
69823;SHT31;57119;52.516;13.508;2023-11-21T06:44:40;5.14;99.99
69823;SHT31;57119;52.516;13.508;2023-11-21T06:47:06;5.11;99.99
69823;SHT31;57119;52.516;13.508;2023-11-21T06:49:32;5.12;99.99
69823;SHT31;57119;52.516;13.508;2023-11-21T06:51:57;5.05;99.99
69823;SHT31;57119;52.516;13.508;2023-11-21T06:54:24;5.07;99.99
69823;SHT31;57119;52.516;13.508;2023-11-21T06:56:49;4.98;99.99
69823;SHT31;57119;52.516;13.508;2023-11-21T06:59:15;5.01;99.99
69823;SHT31;57119;52.516;13.508;2023-11-21T07:01:41;5.08;99.99
69823;SHT31;57119;52.516;13.508;2023-11-21T07:04:07;5.07;99.99
69823;SHT31;57119;52.516;13.508;2023-11-21T07:06:34;5.00;99.99
69823;SHT31;57119;52.516;13.508;2023-11-21T07:09:00;4.94;99.99
69823;SHT31;57119;52.516;13.508;2023-11-21T07:11:26;5.00;99.99
69823;SHT31;57119;52.516;13.508;2023-11-21T07:13:52;4.95;99.99
69823;SHT31;57119;52.516;13.508;2023-11-21T07:16:17;4.94;99.99
69823;SHT31;57119;52.516;13.508;2023-11-21T07:18:44;4.90;99.99
69823;SHT31;57119;52.516;13.508;2023-11-21T07:21:09;4.85;99.99
69823;SHT31;57119;52.516;13.508;2023-11-21T07:23:37;4.90;99.99
69823;SHT31;57119;52.516;13.508;2023-11-21T07:26:02;4.85;99.99
69823;SHT31;57119;52.516;13.508;2023-11-21T07:28:29;4.84;99.99
69823;SHT31;57119;52.516;13.508;2023-11-21T07:30:55;5.01;99.99
69823;SHT31;57119;52.516;13.508;2023-11-21T07:33:20;5.07;99.99
69823;SHT31;57119;52.516;13.508;2023-11-21T07:35:46;5.02;99.99
69823;SHT31;57119;52.516;13.508;2023-11-21T07:38:12;4.84;99.99
69823;SHT31;57119;52.516;13.508;2023-11-21T07:40:38;4.94;99.99
69823;SHT31;57119;52.516;13.508;2023-11-21T07:43:03;4.93;99.99
69823;SHT31;57119;52.516;13.508;2023-11-21T07:45:29;4.90;99.99
69823;SHT31;57119;52.516;13.508;2023-11-21T07:47:54;4.90;99.99
69823;SHT31;57119;52.516;13.508;2023-11-21T07:50:21;4.85;99.99
69823;SHT31;57119;52.516;13.508;2023-11-21T07:52:48;4.93;99.99
69823;SHT31;57119;52.516;13.508;2023-11-21T07:55:14;4.87;99.99
69823;SHT31;57119;52.516;13.508;2023-11-21T07:57:40;4.87;99.99
69823;SHT31;57119;52.516;13.508;2023-11-21T08:00:06;4.90;99.99
69823;SHT31;57119;52.516;13.508;2023-11-21T08:02:34;4.87;99.99
69823;SHT31;57119;52.516;13.508;2023-11-21T08:05:00;4.87;99.99
69823;SHT31;57119;52.516;13.508;2023-11-21T08:07:25;4.93;99.99
69823;SHT31;57119;52.516;13.508;2023-11-21T08:09:51;4.94;99.99
69823;SHT31;57119;52.516;13.508;2023-11-21T08:12:17;4.87;99.99
69823;SHT31;57119;52.516;13.508;2023-11-21T08:14:43;4.81;99.99
69823;SHT31;57119;52.516;13.508;2023-11-21T08:17:09;4.84;99.99
69823;SHT31;57119;52.516;13.508;2023-11-21T08:19:35;4.98;99.99
69823;SHT31;57119;52.516;13.508;2023-11-21T08:22:02;4.98;99.99
69823;SHT31;57119;52.516;13.508;2023-11-21T08:24:27;5.00;99.99
69823;SHT31;57119;52.516;13.508;2023-11-21T08:26:53;4.98;99.99
69823;SHT31;57119;52.516;13.508;2023-11-21T08:29:19;4.90;99.99
69823;SHT31;57119;52.516;13.508;2023-11-21T08:31:45;4.88;99.99
69823;SHT31;57119;52.516;13.508;2023-11-21T08:34:13;4.90;99.99
69823;SHT31;57119;52.516;13.508;2023-11-21T08:36:42;4.88;99.99
69823;SHT31;57119;52.516;13.508;2023-11-21T08:39:08;4.93;99.99
69823;SHT31;57119;52.516;13.508;2023-11-21T08:41:34;4.85;99.99
69823;SHT31;57119;52.516;13.508;2023-11-21T08:44:02;4.91;99.99
69823;SHT31;57119;52.516;13.508;2023-11-21T08:46:32;4.94;99.99
69823;SHT31;57119;52.516;13.508;2023-11-21T08:49:00;4.90;99.99
69823;SHT31;57119;52.516;13.508;2023-11-21T08:51:26;4.79;99.99
69823;SHT31;57119;52.516;13.508;2023-11-21T08:53:51;4.79;99.99
69823;SHT31;57119;52.516;13.508;2023-11-21T08:56:17;4.80;99.99
69823;SHT31;57119;52.516;13.508;2023-11-21T08:58:43;4.76;99.99
69823;SHT31;57119;52.516;13.508;2023-11-21T09:01:09;4.77;99.99
69823;SHT31;57119;52.516;13.508;2023-11-21T09:03:34;4.80;99.99
69823;SHT31;57119;52.516;13.508;2023-11-21T09:06:00;4.81;99.99
69823;SHT31;57119;52.516;13.508;2023-11-21T09:08:25;4.80;99.99
69823;SHT31;57119;52.516;13.508;2023-11-21T09:10:53;4.81;99.99
69823;SHT31;57119;52.516;13.508;2023-11-21T09:13:18;4.76;99.99
69823;SHT31;57119;52.516;13.508;2023-11-21T09:15:44;4.74;99.99
69823;SHT31;57119;52.516;13.508;2023-11-21T09:18:15;4.63;99.99
69823;SHT31;57119;52.516;13.508;2023-11-21T09:20:42;4.54;99.99
69823;SHT31;57119;52.516;13.508;2023-11-21T09:23:09;4.53;99.99
69823;SHT31;57119;52.516;13.508;2023-11-21T09:25:34;4.72;99.99
69823;SHT31;57119;52.516;13.508;2023-11-21T09:28:00;4.80;99.99
69823;SHT31;57119;52.516;13.508;2023-11-21T09:30:25;4.88;99.99
69823;SHT31;57119;52.516;13.508;2023-11-21T09:32:51;4.87;99.99
69823;SHT31;57119;52.516;13.508;2023-11-21T09:35:17;4.84;99.99
69823;SHT31;57119;52.516;13.508;2023-11-21T09:37:45;4.85;99.99
69823;SHT31;57119;52.516;13.508;2023-11-21T09:40:11;5.00;99.99
69823;SHT31;57119;52.516;13.508;2023-11-21T09:42:57;4.93;99.99
69823;SHT31;57119;52.516;13.508;2023-11-21T09:45:32;4.94;99.99
69823;SHT31;57119;52.516;13.508;2023-11-21T09:48:00;4.94;99.99
69823;SHT31;57119;52.516;13.508;2023-11-21T09:50:26;4.83;99.99
69823;SHT31;57119;52.516;13.508;2023-11-21T09:55:18;4.83;99.99
69823;SHT31;57119;52.516;13.508;2023-11-21T09:57:49;4.95;99.99
69823;SHT31;57119;52.516;13.508;2023-11-21T10:00:15;4.95;99.99
69823;SHT31;57119;52.516;13.508;2023-11-21T10:02:43;5.00;99.99
69823;SHT31;57119;52.516;13.508;2023-11-21T10:05:09;4.87;99.99
69823;SHT31;57119;52.516;13.508;2023-11-21T10:07:39;4.77;99.99
69823;SHT31;57119;52.516;13.508;2023-11-21T10:10:07;4.88;99.99
69823;SHT31;57119;52.516;13.508;2023-11-21T10:12:33;4.85;99.99
69823;SHT31;57119;52.516;13.508;2023-11-21T10:15:01;4.81;99.99
69823;SHT31;57119;52.516;13.508;2023-11-21T10:17:28;4.81;99.99
69823;SHT31;57119;52.516;13.508;2023-11-21T10:20:02;4.77;99.99
69823;SHT31;57119;52.516;13.508;2023-11-21T10:22:31;4.90;99.99
69823;SHT31;57119;52.516;13.508;2023-11-21T10:24:56;4.94;99.99
69823;SHT31;57119;52.516;13.508;2023-11-21T10:27:22;4.91;99.99
69823;SHT31;57119;52.516;13.508;2023-11-21T10:29:51;4.95;99.99
69823;SHT31;57119;52.516;13.508;2023-11-21T10:32:16;5.02;99.99
69823;SHT31;57119;52.516;13.508;2023-11-21T10:34:42;5.10;99.99
69823;SHT31;57119;52.516;13.508;2023-11-21T10:37:13;5.07;99.99
69823;SHT31;57119;52.516;13.508;2023-11-21T10:39:40;5.07;99.99
69823;SHT31;57119;52.516;13.508;2023-11-21T10:42:09;4.93;99.99
69823;SHT31;57119;52.516;13.508;2023-11-21T10:44:35;4.79;99.99
69823;SHT31;57119;52.516;13.508;2023-11-21T10:47:00;4.73;99.99
69823;SHT31;57119;52.516;13.508;2023-11-21T10:49:27;4.74;99.99
69823;SHT31;57119;52.516;13.508;2023-11-21T10:51:53;4.66;99.99
69823;SHT31;57119;52.516;13.508;2023-11-21T10:54:20;4.67;99.99
69823;SHT31;57119;52.516;13.508;2023-11-21T10:56:48;4.72;99.99
69823;SHT31;57119;52.516;13.508;2023-11-21T10:59:15;4.72;99.99
69823;SHT31;57119;52.516;13.508;2023-11-21T11:01:45;4.72;99.99
69823;SHT31;57119;52.516;13.508;2023-11-21T11:04:11;4.73;99.99
69823;SHT31;57119;52.516;13.508;2023-11-21T11:06:45;4.63;99.99
69823;SHT31;57119;52.516;13.508;2023-11-21T11:09:17;4.66;99.99
69823;SHT31;57119;52.516;13.508;2023-11-21T11:11:43;4.60;99.99
69823;SHT31;57119;52.516;13.508;2023-11-21T11:14:13;4.59;99.99
69823;SHT31;57119;52.516;13.508;2023-11-21T11:16:39;4.50;99.99
69823;SHT31;57119;52.516;13.508;2023-11-21T11:19:11;4.52;99.99
69823;SHT31;57119;52.516;13.508;2023-11-21T11:27:32;4.49;99.99
69823;SHT31;57119;52.516;13.508;2023-11-21T11:32:54;4.48;99.99
69823;SHT31;57119;52.516;13.508;2023-11-21T11:35:57;4.52;99.99
69823;SHT31;57119;52.516;13.508;2023-11-21T11:38:14;4.41;99.99
69823;SHT31;57119;52.516;13.508;2023-11-21T11:40:46;4.41;99.99
69823;SHT31;57119;52.516;13.508;2023-11-21T11:43:12;4.42;99.99
69823;SHT31;57119;52.516;13.508;2023-11-21T11:45:38;4.46;99.99
69823;SHT31;57119;52.516;13.508;2023-11-21T11:48:11;4.48;99.99
69823;SHT31;57119;52.516;13.508;2023-11-21T11:50:42;4.53;99.99
69823;SHT31;57119;52.516;13.508;2023-11-21T11:53:15;4.52;99.99
69823;SHT31;57119;52.516;13.508;2023-11-21T11:55:40;4.50;99.99
69823;SHT31;57119;52.516;13.508;2023-11-21T11:58:06;4.54;99.99
69823;SHT31;57119;52.516;13.508;2023-11-21T12:03:00;4.49;99.99
69823;SHT31;57119;52.516;13.508;2023-11-21T12:05:29;4.52;99.99
69823;SHT31;57119;52.516;13.508;2023-11-21T12:07:57;4.45;99.99
69823;SHT31;57119;52.516;13.508;2023-11-21T12:10:24;4.33;99.99
69823;SHT31;57119;52.516;13.508;2023-11-21T12:12:55;4.31;99.99
69823;SHT31;57119;52.516;13.508;2023-11-21T12:15:21;4.22;99.99
69823;SHT31;57119;52.516;13.508;2023-11-21T12:17:48;4.31;99.99
69823;SHT31;57119;52.516;13.508;2023-11-21T12:20:15;4.35;99.99
69823;SHT31;57119;52.516;13.508;2023-11-21T12:22:49;4.33;99.99
69823;SHT31;57119;52.516;13.508;2023-11-21T12:25:33;4.32;99.99
69823;SHT31;57119;52.516;13.508;2023-11-21T12:27:59;4.21;99.99
69823;SHT31;57119;52.516;13.508;2023-11-21T12:30:29;4.19;99.99
69823;SHT31;57119;52.516;13.508;2023-11-21T12:32:59;4.26;99.99
69823;SHT31;57119;52.516;13.508;2023-11-21T12:35:27;4.19;99.99
69823;SHT31;57119;52.516;13.508;2023-11-21T12:37:54;4.15;99.99
69823;SHT31;57119;52.516;13.508;2023-11-21T12:40:20;4.11;99.99
69823;SHT31;57119;52.516;13.508;2023-11-21T12:42:51;4.21;99.99
69823;SHT31;57119;52.516;13.508;2023-11-21T12:47:53;4.36;99.99
69823;SHT31;57119;52.516;13.508;2023-11-21T12:50:22;4.39;99.99
69823;SHT31;57119;52.516;13.508;2023-11-21T12:52:50;4.42;99.99
69823;SHT31;57119;52.516;13.508;2023-11-21T12:55:17;4.41;99.99
69823;SHT31;57119;52.516;13.508;2023-11-21T12:57:44;4.26;99.99
69823;SHT31;57119;52.516;13.508;2023-11-21T13:00:11;4.29;99.99
69823;SHT31;57119;52.516;13.508;2023-11-21T13:02:41;4.25;99.99
69823;SHT31;57119;52.516;13.508;2023-11-21T13:05:08;4.12;99.99
69823;SHT31;57119;52.516;13.508;2023-11-21T13:07:43;4.15;99.99
69823;SHT31;57119;52.516;13.508;2023-11-21T13:10:13;4.14;99.99
69823;SHT31;57119;52.516;13.508;2023-11-21T13:12:45;4.09;99.99
69823;SHT31;57119;52.516;13.508;2023-11-21T13:15:14;4.09;99.99
69823;SHT31;57119;52.516;13.508;2023-11-21T13:17:43;4.02;99.99
69823;SHT31;57119;52.516;13.508;2023-11-21T13:20:13;4.01;99.99
69823;SHT31;57119;52.516;13.508;2023-11-21T13:22:51;3.98;99.99
69823;SHT31;57119;52.516;13.508;2023-11-21T13:25:20;3.90;99.99
69823;SHT31;57119;52.516;13.508;2023-11-21T13:27:46;3.91;99.99
69823;SHT31;57119;52.516;13.508;2023-11-21T13:30:15;3.87;99.99
69823;SHT31;57119;52.516;13.508;2023-11-21T13:32:44;3.94;99.99
69823;SHT31;57119;52.516;13.508;2023-11-21T13:35:11;3.93;99.99
69823;SHT31;57119;52.516;13.508;2023-11-21T13:37:47;3.81;99.99
69823;SHT31;57119;52.516;13.508;2023-11-21T13:40:15;3.81;99.99
69823;SHT31;57119;52.516;13.508;2023-11-21T13:42:45;3.71;99.99
69823;SHT31;57119;52.516;13.508;2023-11-21T13:45:11;3.66;99.99
69823;SHT31;57119;52.516;13.508;2023-11-21T13:47:38;3.74;99.99
69823;SHT31;57119;52.516;13.508;2023-11-21T13:50:04;3.73;99.99
69823;SHT31;57119;52.516;13.508;2023-11-21T13:52:32;3.69;99.99
69823;SHT31;57119;52.516;13.508;2023-11-21T13:54:58;3.69;99.99
69823;SHT31;57119;52.516;13.508;2023-11-21T13:57:26;3.64;99.99
69823;SHT31;57119;52.516;13.508;2023-11-21T13:59:52;3.70;99.99
69823;SHT31;57119;52.516;13.508;2023-11-21T14:02:17;3.63;99.99
69823;SHT31;57119;52.516;13.508;2023-11-21T14:04:44;3.49;99.99
69823;SHT31;57119;52.516;13.508;2023-11-21T14:07:25;3.40;99.99
69823;SHT31;57119;52.516;13.508;2023-11-21T14:10:03;3.42;99.99
69823;SHT31;57119;52.516;13.508;2023-11-21T14:12:30;3.20;99.99
69823;SHT31;57119;52.516;13.508;2023-11-21T14:14:59;3.23;99.99
69823;SHT31;57119;52.516;13.508;2023-11-21T14:17:25;3.20;99.99
69823;SHT31;57119;52.516;13.508;2023-11-21T14:19:50;3.22;99.99
69823;SHT31;57119;52.516;13.508;2023-11-21T14:22:16;3.22;99.99
69823;SHT31;57119;52.516;13.508;2023-11-21T14:24:42;3.18;99.99
69823;SHT31;57119;52.516;13.508;2023-11-21T14:27:11;3.18;99.99
69823;SHT31;57119;52.516;13.508;2023-11-21T14:29:37;3.08;99.99
69823;SHT31;57119;52.516;13.508;2023-11-21T14:32:05;3.11;99.99
69823;SHT31;57119;52.516;13.508;2023-11-21T14:34:30;3.06;99.99
69823;SHT31;57119;52.516;13.508;2023-11-21T14:36:56;3.01;99.99
69823;SHT31;57119;52.516;13.508;2023-11-21T14:39:22;2.87;99.99
69823;SHT31;57119;52.516;13.508;2023-11-21T14:41:53;2.85;99.99
69823;SHT31;57119;52.516;13.508;2023-11-21T14:44:20;2.74;99.99
69823;SHT31;57119;52.516;13.508;2023-11-21T14:46:50;2.77;99.99
69823;SHT31;57119;52.516;13.508;2023-11-21T14:49:17;2.70;99.99
69823;SHT31;57119;52.516;13.508;2023-11-21T14:51:54;2.78;99.99
69823;SHT31;57119;52.516;13.508;2023-11-21T14:54:30;2.73;99.99
69823;SHT31;57119;52.516;13.508;2023-11-21T14:57:14;2.60;99.99
69823;SHT31;57119;52.516;13.508;2023-11-21T14:59:47;2.73;99.99
69823;SHT31;57119;52.516;13.508;2023-11-21T15:02:16;2.70;99.99
69823;SHT31;57119;52.516;13.508;2023-11-21T15:04:46;2.67;99.99
69823;SHT31;57119;52.516;13.508;2023-11-21T15:07:13;2.67;99.99
69823;SHT31;57119;52.516;13.508;2023-11-21T15:09:38;2.68;99.99
69823;SHT31;57119;52.516;13.508;2023-11-21T15:12:08;2.54;99.99
69823;SHT31;57119;52.516;13.508;2023-11-21T15:14:41;2.60;99.99
69823;SHT31;57119;52.516;13.508;2023-11-21T15:17:08;2.60;99.99
69823;SHT31;57119;52.516;13.508;2023-11-21T15:19:34;2.65;99.99
69823;SHT31;57119;52.516;13.508;2023-11-21T15:22:01;2.60;99.99
69823;SHT31;57119;52.516;13.508;2023-11-21T15:24:26;2.70;99.99
69823;SHT31;57119;52.516;13.508;2023-11-21T15:26:52;2.65;99.99
69823;SHT31;57119;52.516;13.508;2023-11-21T15:29:17;2.62;99.99
69823;SHT31;57119;52.516;13.508;2023-11-21T15:31:43;2.61;99.99
69823;SHT31;57119;52.516;13.508;2023-11-21T15:34:14;2.62;99.99
69823;SHT31;57119;52.516;13.508;2023-11-21T15:36:39;2.65;99.99
69823;SHT31;57119;52.516;13.508;2023-11-21T15:39:05;2.62;99.99
69823;SHT31;57119;52.516;13.508;2023-11-21T15:41:30;2.61;99.99
69823;SHT31;57119;52.516;13.508;2023-11-21T15:43:56;2.60;99.99